createdAt,value
2023-01-23T05:41:11.588Z,-0.74
2023-01-23T05:46:13.397Z,-0.81
2023-01-23T05:51:15.221Z,-0.71
2023-01-23T05:56:16.983Z,-0.47
2023-01-23T06:01:18.836Z,-0.67
2023-01-23T06:06:20.388Z,-0.46
2023-01-23T06:11:22.002Z,-0.74
2023-01-23T06:16:23.587Z,-0.28
2023-01-23T06:21:25.215Z,-0.42
2023-01-23T06:26:30.050Z,-0.52
2023-01-23T06:31:32.763Z,-0.60
2023-01-23T06:36:34.981Z,-0.46
2023-01-23T06:41:36.826Z,-0.48
2023-01-23T06:46:38.903Z,-0.32
2023-01-23T06:51:41.111Z,-0.33
2023-01-23T06:56:42.715Z,-0.25
2023-01-23T07:01:44.386Z,-0.06
2023-01-23T07:06:46.126Z,0.05
2023-01-23T07:11:47.729Z,-0.23
2023-01-23T07:16:50.060Z,-0.15
2023-01-23T07:21:51.695Z,-0.66
2023-01-23T07:26:53.589Z,0.05
2023-01-23T07:31:55.339Z,-0.05
2023-01-23T07:36:57.249Z,0.01
2023-01-23T07:41:59.328Z,-0.42
2023-01-23T07:47:00.985Z,-0.42
2023-01-23T07:52:03.829Z,-0.78
2023-01-23T07:57:05.412Z,-0.10
2023-01-23T08:02:10.390Z,0.01
2023-01-23T08:07:12.667Z,-0.25
2023-01-23T08:12:14.549Z,0.29
2023-01-23T08:17:16.200Z,0.18
2023-01-23T08:22:17.941Z,0.46
2023-01-23T08:27:19.590Z,0.36
2023-01-23T08:32:21.403Z,0.31
2023-01-23T08:37:23.177Z,0.41
2023-01-23T08:42:25.044Z,0.24
2023-01-23T08:47:27.565Z,0.58
2023-01-23T08:52:29.769Z,0.70
2023-01-23T08:57:31.657Z,0.56
2023-01-23T09:02:33.720Z,0.71
2023-01-23T09:07:38.011Z,0.69
2023-01-23T09:12:42.718Z,0.81
2023-01-23T09:17:44.664Z,0.63
2023-01-23T09:22:46.334Z,0.55
2023-01-23T09:27:47.935Z,0.76
2023-01-23T09:32:49.516Z,0.61
2023-01-23T09:38:00.017Z,0.84
2023-01-23T09:43:25.681Z,0.82
2023-01-23T09:48:29.979Z,0.87
2023-01-23T09:53:39.916Z,0.85
2023-01-23T09:58:48.919Z,0.20
2023-01-23T10:03:50.795Z,0.88
2023-01-23T10:09:29.925Z,0.93
2023-01-23T10:14:46.660Z,0.88
2023-01-23T10:19:51.224Z,0.84
2023-01-23T10:24:56.503Z,0.84
2023-01-23T10:30:03.537Z,0.97
2023-01-23T10:35:13.856Z,1.12
2023-01-23T10:40:15.508Z,1.04
2023-01-23T10:45:21.258Z,1.18
2023-01-23T10:50:40.259Z,1.44
2023-01-23T10:55:45.604Z,1.48
2023-01-23T11:00:47.562Z,1.11
2023-01-23T11:05:53.592Z,1.28
2023-01-23T11:11:15.726Z,1.50
2023-01-23T11:16:23.825Z,1.51
2023-01-23T11:21:32.667Z,1.48
2023-01-23T11:26:36.072Z,1.09
2023-01-23T11:31:37.843Z,1.13
2023-01-23T11:36:59.773Z,1.53
2023-01-23T11:42:02.681Z,1.29
2023-01-23T11:47:36.611Z,1.34
2023-01-23T11:53:21.191Z,1.44
2023-01-23T11:58:49.563Z,1.31
2023-01-23T12:04:19.669Z,1.15
2023-01-23T12:09:22.132Z,1.20
2023-01-23T12:14:35.727Z,1.09
2023-01-23T12:19:57.052Z,0.89
2023-01-23T12:25:20.340Z,1.23
2023-01-23T12:30:28.070Z,1.15
2023-01-23T12:35:54.467Z,1.13
2023-01-23T12:41:36.765Z,0.49
2023-01-23T12:47:10.385Z,0.97
2023-01-23T12:52:20.038Z,0.85
2023-01-23T12:57:52.530Z,0.35
2023-01-23T13:03:37.487Z,1.04
2023-01-23T13:09:18.482Z,1.02
2023-01-23T13:14:43.422Z,1.10
2023-01-23T13:20:13.258Z,1.01
2023-01-23T13:25:19.379Z,0.92
2023-01-23T13:30:27.000Z,1.03
2023-01-23T13:35:44.738Z,1.02
2023-01-23T13:41:11.395Z,1.02
2023-01-23T13:46:25.436Z,1.17
2023-01-23T14:23:59.668Z,1.05
2023-01-23T14:29:24.618Z,0.89
2023-01-23T14:34:27.040Z,0.85
2023-01-23T14:39:31.373Z,0.87
2023-01-23T14:44:39.066Z,0.89
2023-01-23T14:49:40.797Z,0.82
2023-01-23T14:54:53.375Z,1.07
2023-01-23T14:59:57.706Z,0.86
2023-01-23T15:05:20.073Z,0.92
2023-01-23T15:10:43.509Z,1.08
2023-01-23T15:15:50.809Z,1.00
2023-01-23T15:20:57.347Z,0.88
2023-01-23T15:26:12.859Z,0.84
2023-01-23T15:31:34.491Z,0.95
2023-01-23T15:36:36.388Z,0.91
2023-01-23T15:41:47.801Z,0.87
2023-01-23T15:46:49.754Z,0.92
2023-01-23T15:51:51.521Z,0.76
2023-01-23T15:57:05.363Z,0.71
2023-01-23T16:02:30.124Z,0.90
2023-01-23T16:07:52.673Z,0.73
2023-01-23T16:12:57.386Z,1.00
2023-01-23T16:18:00.075Z,0.79
2023-01-23T16:23:15.117Z,0.76
2023-01-23T16:28:23.935Z,0.78
2023-01-23T16:33:26.648Z,0.80
2023-01-23T16:38:29.270Z,0.77
2023-01-23T16:43:31.590Z,0.51
2023-01-23T16:48:33.463Z,0.82
2023-01-23T16:53:38.169Z,0.58
2023-01-23T16:58:41.372Z,0.62
2023-01-23T17:03:44.303Z,0.78
2023-01-23T17:08:46.124Z,0.63
2023-01-23T17:13:49.013Z,0.71
2023-01-23T17:18:51.589Z,0.71
2023-01-23T17:23:53.652Z,0.81
2023-01-23T17:28:55.331Z,0.59
2023-01-23T17:33:56.929Z,0.74
2023-01-23T17:38:59.791Z,0.79
2023-01-23T17:44:01.488Z,0.25
2023-01-23T17:49:04.425Z,0.82
2023-01-23T17:54:18.596Z,0.84
2023-01-23T17:59:20.270Z,0.88
2023-01-23T18:04:23.165Z,0.85
2023-01-23T18:09:24.826Z,0.40
2023-01-23T18:15:01.269Z,1.02
2023-01-23T18:20:04.078Z,0.77
2023-01-23T18:25:06.290Z,0.71
2023-01-23T18:30:11.279Z,0.85
2023-01-23T18:35:37.118Z,0.81
2023-01-23T18:41:20.124Z,0.87
2023-01-23T18:46:24.181Z,0.61
2023-01-23T18:51:54.701Z,0.96
2023-01-23T18:57:16.541Z,0.97
2023-01-23T19:03:07.618Z,0.89
2023-01-23T19:08:31.049Z,0.82
2023-01-23T19:13:44.713Z,0.76
2023-01-23T19:19:01.763Z,0.86
2023-01-23T19:24:11.308Z,0.91
2023-01-23T19:29:21.967Z,0.86
2023-01-23T19:34:24.499Z,0.87
2023-01-23T19:39:26.853Z,0.57
2023-01-23T19:44:32.173Z,0.63
2023-01-23T19:49:33.757Z,0.80
2023-01-23T19:54:36.555Z,0.79
2023-01-23T19:59:38.163Z,0.64
2023-01-23T20:04:39.739Z,0.94
2023-01-23T20:09:41.413Z,0.91
2023-01-23T20:14:42.956Z,0.93
2023-01-23T20:19:44.550Z,0.89
2023-01-23T20:24:46.344Z,0.98
2023-01-23T20:29:53.728Z,0.93
2023-01-23T20:34:55.357Z,1.01
2023-01-23T20:39:56.989Z,0.99
2023-01-23T20:44:58.555Z,1.00
2023-01-23T20:50:00.912Z,1.16
2023-01-23T20:55:03.080Z,0.96
2023-01-23T21:00:05.193Z,1.19
2023-01-23T21:05:07.293Z,1.11
2023-01-23T21:10:09.377Z,1.05
2023-01-23T21:15:11.525Z,0.90
